createdAt,value
2023-01-19T00:03:10.747Z,2.08
2023-01-19T00:08:19.051Z,3.00
2023-01-19T00:13:26.726Z,3.10
2023-01-19T00:18:31.852Z,4.07
2023-01-19T00:23:37.079Z,4.15
2023-01-19T00:28:45.228Z,3.05
2023-01-19T00:38:58.229Z,2.22
2023-01-19T00:44:05.890Z,3.28
2023-01-19T00:49:11.078Z,3.05
2023-01-19T00:54:16.278Z,2.88
2023-01-19T00:59:26.116Z,3.63
2023-01-19T01:04:31.227Z,3.15
2023-01-19T01:09:39.307Z,4.35
2023-01-19T01:19:51.912Z,3.65
2023-01-19T01:24:57.088Z,4.40
2023-01-19T01:30:04.836Z,4.47
2023-01-19T01:35:11.798Z,4.35
2023-01-19T01:40:18.796Z,3.55
2023-01-19T01:45:36.921Z,4.70
2023-01-19T01:51:06.259Z,6.10
2023-01-19T01:56:16.228Z,4.55
2023-01-19T02:01:36.385Z,5.00
2023-01-19T02:06:53.981Z,5.43
2023-01-19T02:12:11.643Z,4.65
2023-01-19T02:17:19.859Z,4.57
2023-01-19T02:22:29.019Z,4.72
2023-01-19T02:27:37.263Z,5.38
2023-01-19T02:32:42.456Z,5.03
2023-01-19T02:37:48.343Z,4.55
2023-01-19T02:42:56.623Z,4.05
2023-01-19T02:48:01.848Z,4.03
2023-01-19T02:53:15.528Z,4.18
2023-01-19T02:58:31.660Z,4.65
2023-01-19T03:03:42.788Z,4.28
2023-01-19T03:08:51.118Z,4.47
2023-01-19T03:14:02.055Z,4.20
2023-01-19T03:19:11.590Z,4.05
2023-01-19T03:24:18.758Z,4.15
2023-01-19T03:29:28.236Z,4.55
2023-01-19T03:34:34.435Z,4.35
2023-01-19T03:39:39.738Z,3.20
2023-01-19T03:44:50.765Z,3.47
2023-01-19T03:49:56.653Z,2.85
2023-01-19T03:55:01.759Z,2.30
2023-01-19T04:00:11.743Z,3.03
2023-01-19T04:05:17.414Z,2.45
2023-01-19T04:10:22.901Z,2.15
2023-01-19T04:15:30.886Z,2.10
2023-01-19T04:25:41.595Z,2.10
2023-01-19T04:30:53.083Z,1.85
2023-01-19T04:35:59.075Z,1.40
2023-01-19T04:41:06.756Z,1.48
2023-01-19T04:46:14.907Z,2.30
2023-01-19T04:51:20.043Z,3.08
2023-01-19T04:56:25.282Z,2.38
2023-01-19T05:01:33.392Z,2.05
2023-01-19T05:06:38.765Z,1.60
2023-01-19T05:11:43.917Z,1.60
2023-01-19T05:16:53.217Z,1.70
2023-01-19T05:21:58.472Z,2.70
2023-01-19T05:27:04.162Z,4.05
2023-01-19T05:32:12.312Z,3.33
2023-01-19T05:37:17.951Z,2.67
2023-01-19T05:42:23.029Z,2.70
2023-01-19T05:47:32.677Z,3.13
2023-01-19T05:52:37.896Z,3.08
2023-01-19T05:57:43.492Z,2.92
2023-01-19T06:02:51.295Z,5.80
2023-01-19T06:07:56.579Z,5.53
2023-01-19T06:13:02.061Z,3.47
2023-01-19T06:18:09.961Z,1.00
2023-01-19T06:23:15.202Z,1.50
2023-01-19T06:28:20.421Z,2.03
2023-01-19T06:33:30.770Z,1.10
2023-01-19T06:38:35.946Z,1.42
2023-01-19T06:43:41.130Z,1.40
2023-01-19T06:48:48.775Z,1.95
2023-01-19T06:53:54.011Z,1.95
2023-01-19T06:58:59.180Z,2.15
2023-01-19T07:04:07.137Z,1.55
2023-01-19T07:09:15.596Z,1.33
2023-01-19T07:14:21.977Z,2.00
2023-01-19T07:19:30.040Z,8.75
2023-01-19T07:24:35.859Z,9.90
2023-01-19T07:29:40.985Z,4.68
2023-01-19T07:34:48.692Z,6.60
2023-01-19T07:39:53.868Z,6.72
2023-01-19T07:44:58.964Z,18.65
2023-01-19T07:50:08.020Z,7.57
2023-01-19T07:55:13.313Z,3.97
2023-01-19T08:00:21.536Z,2.58
2023-01-19T08:05:29.444Z,5.35
2023-01-19T08:15:40.472Z,7.20
2023-01-19T08:20:48.813Z,3.97
2023-01-19T08:25:54.528Z,3.08
2023-01-19T08:31:11.112Z,3.28
2023-01-19T08:36:26.612Z,3.88
2023-01-19T08:41:33.076Z,2.35
2023-01-19T08:46:38.663Z,2.95
2023-01-19T08:51:50.010Z,4.85
2023-01-19T08:57:05.641Z,4.80
2023-01-19T09:02:12.927Z,3.72
2023-01-19T09:07:22.073Z,5.45
2023-01-19T09:12:27.349Z,4.63
2023-01-19T09:17:32.581Z,6.03
2023-01-19T09:22:40.469Z,4.45
2023-01-19T09:27:55.063Z,3.10
2023-01-19T09:33:07.219Z,2.97
2023-01-19T09:38:15.884Z,4.10
2023-01-19T09:43:28.259Z,4.43
2023-01-19T09:48:39.192Z,5.90
2023-01-19T09:53:56.145Z,5.10
2023-01-19T09:59:02.726Z,2.78
2023-01-19T10:04:33.002Z,3.40
2023-01-19T10:09:50.153Z,6.03
2023-01-19T10:15:02.575Z,3.05
2023-01-19T10:20:15.710Z,3.33
2023-01-19T10:25:27.653Z,3.03
2023-01-19T10:30:33.598Z,2.97
2023-01-19T10:35:39.957Z,3.50
2023-01-19T10:40:53.423Z,2.88
2023-01-19T10:46:00.228Z,3.03
2023-01-19T10:51:06.962Z,2.83
2023-01-19T10:56:19.807Z,2.50
2023-01-19T11:01:28.045Z,3.58
2023-01-19T11:06:34.218Z,2.63
2023-01-19T11:11:49.395Z,4.00
2023-01-19T11:16:57.645Z,3.45
2023-01-19T11:22:22.432Z,4.22
2023-01-19T11:27:31.191Z,4.55
2023-01-19T11:32:37.723Z,6.10
2023-01-19T11:37:43.730Z,3.15
2023-01-19T11:42:51.882Z,3.70
2023-01-19T11:47:57.756Z,3.33
2023-01-19T11:53:08.192Z,5.00
2023-01-19T11:58:19.469Z,4.20
2023-01-19T12:03:31.336Z,5.72
2023-01-19T12:08:39.723Z,3.55
2023-01-19T12:13:49.591Z,4.05
2023-01-19T12:18:58.467Z,4.35
2023-01-19T12:24:10.320Z,5.10
2023-01-19T12:29:22.832Z,8.80
2023-01-19T12:34:44.073Z,8.45
2023-01-19T12:39:52.261Z,5.97
2023-01-19T12:45:10.047Z,4.78
2023-01-19T12:50:20.226Z,5.50
2023-01-19T12:55:28.283Z,7.13
2023-01-19T13:06:01.434Z,5.75
2023-01-19T13:11:26.029Z,5.90
2023-01-19T13:17:00.352Z,3.88
2023-01-19T13:22:48.368Z,3.90
2023-01-19T13:27:54.170Z,2.78
2023-01-19T13:33:09.393Z,3.22
2023-01-19T13:38:16.062Z,3.45
2023-01-19T13:43:25.004Z,3.58
2023-01-19T13:48:35.344Z,3.03
2023-01-19T13:53:41.101Z,2.15
2023-01-19T13:58:47.423Z,2.97
2023-01-19T14:03:55.965Z,4.03
2023-01-19T14:09:20.276Z,4.20
2023-01-19T14:14:28.010Z,4.47
2023-01-19T14:19:51.653Z,3.90
2023-01-19T14:24:57.426Z,5.18
2023-01-19T14:30:19.275Z,6.20
2023-01-19T14:35:30.879Z,4.15
2023-01-19T14:40:37.128Z,3.65
2023-01-19T14:45:44.116Z,3.33
2023-01-19T14:51:02.962Z,3.47
2023-01-19T14:56:10.656Z,3.75
2023-01-19T15:01:16.436Z,4.40
2023-01-19T15:06:25.216Z,4.38
2023-01-19T15:11:37.277Z,3.40
2023-01-19T15:16:43.099Z,5.00
2023-01-19T15:21:51.423Z,3.28
2023-01-19T15:32:05.071Z,2.95
2023-01-19T15:37:13.627Z,5.18
2023-01-19T15:42:19.440Z,5.47
2023-01-19T15:47:25.086Z,5.50
2023-01-19T15:52:33.346Z,6.53
2023-01-19T15:57:41.305Z,7.75
2023-01-19T16:02:47.188Z,7.28
2023-01-19T16:07:55.764Z,8.02
2023-01-19T16:13:01.792Z,8.43
2023-01-19T16:18:07.931Z,8.63
2023-01-19T16:23:16.252Z,9.80
2023-01-19T16:33:27.523Z,12.18
2023-01-19T16:38:35.999Z,10.27
2023-01-19T16:43:41.794Z,8.00
2023-01-19T16:48:47.550Z,6.18
2023-01-19T16:53:55.928Z,7.40
2023-01-19T17:04:09.547Z,5.63
2023-01-19T17:09:18.385Z,5.97
2023-01-19T17:14:24.677Z,5.32
2023-01-19T17:19:30.954Z,6.88
2023-01-19T17:24:43.135Z,8.45
2023-01-19T17:29:49.998Z,8.73
2023-01-19T17:34:56.031Z,9.15
2023-01-19T17:40:04.433Z,10.35
2023-01-19T17:50:17.671Z,7.28
2023-01-19T17:55:26.842Z,6.65
2023-01-19T18:00:33.188Z,7.65
2023-01-19T18:05:38.993Z,6.55
2023-01-19T18:10:47.347Z,7.28
2023-01-19T18:15:53.265Z,6.85
2023-01-19T18:21:02.061Z,9.02
2023-01-19T18:26:12.343Z,7.45
2023-01-19T18:31:19.957Z,9.38
2023-01-19T18:36:26.230Z,7.63
2023-01-19T18:41:37.248Z,8.18
2023-01-19T18:46:43.368Z,11.40
2023-01-19T18:51:49.385Z,6.88
2023-01-19T18:56:59.313Z,7.68
2023-01-19T19:02:07.696Z,9.90
2023-01-19T19:12:23.354Z,8.00
2023-01-19T19:17:29.307Z,7.43
2023-01-19T19:22:35.937Z,9.57
2023-01-19T19:27:46.420Z,12.63
2023-01-19T19:32:57.067Z,11.05
2023-01-19T19:38:02.943Z,12.20
2023-01-19T19:43:11.333Z,9.75
2023-01-19T19:53:25.526Z,14.20
2023-01-19T19:58:35.563Z,12.23
2023-01-19T20:03:41.638Z,10.18
2023-01-19T20:08:48.171Z,10.35
2023-01-19T20:13:57.558Z,9.88
2023-01-19T20:19:03.367Z,11.45
2023-01-19T20:24:11.752Z,12.30
2023-01-19T20:29:20.563Z,11.73
2023-01-19T20:34:28.332Z,11.43
2023-01-19T20:39:36.617Z,9.50
2023-01-19T20:44:50.904Z,11.65
2023-01-19T20:49:56.705Z,12.57
2023-01-19T20:55:02.679Z,10.93
2023-01-19T21:00:16.315Z,13.52
2023-01-19T21:05:22.283Z,12.50
2023-01-19T21:10:28.189Z,12.90
2023-01-19T21:15:39.199Z,11.77
2023-01-19T21:20:46.022Z,11.98
2023-01-19T21:25:56.772Z,10.10
2023-01-19T21:31:10.875Z,9.60
2023-01-19T21:36:17.871Z,9.38
2023-01-19T21:41:26.841Z,8.18
2023-01-19T21:46:36.555Z,5.75
2023-01-19T21:51:42.600Z,7.47
2023-01-19T21:56:50.041Z,7.93
2023-01-19T22:02:26.812Z,7.47
2023-01-19T22:07:40.129Z,7.65
2023-01-19T22:12:47.866Z,8.55
2023-01-19T22:17:56.914Z,7.97
2023-01-19T22:23:02.949Z,8.20
2023-01-19T22:28:08.874Z,7.15
2023-01-19T22:33:17.337Z,6.43
2023-01-19T22:38:23.026Z,9.27
2023-01-19T22:43:28.995Z,7.95
2023-01-19T22:48:37.636Z,8.07
2023-01-19T22:53:43.562Z,8.95
2023-01-19T22:58:50.701Z,8.88
2023-01-19T23:03:59.997Z,10.57
2023-01-19T23:09:07.301Z,8.77
2023-01-19T23:14:17.035Z,8.00
2023-01-19T23:19:25.212Z,8.70
2023-01-19T23:24:31.197Z,10.50
2023-01-19T23:29:36.718Z,12.40
2023-01-19T23:34:44.903Z,11.02
2023-01-19T23:39:50.044Z,9.52
2023-01-19T23:44:55.532Z,10.75
2023-01-19T23:50:03.285Z,9.57
2023-01-19T23:55:09.961Z,11.38
